sensor_id;sensor_type;location;lat;lon;timestamp;pressure;altitude;pressure_sealevel;temperature;humidity
71938;BME280;59810;48.800;9.086;2023-03-19T00:00:48;97322.78;;;8.63;68.88
71938;BME280;59810;48.800;9.086;2023-03-19T00:03:14;97319.13;;;8.69;68.86
71938;BME280;59810;48.800;9.086;2023-03-19T00:05:50;97325.06;;;8.71;69.74
71938;BME280;59810;48.800;9.086;2023-03-19T00:08:16;97338.28;;;8.72;68.46
71938;BME280;59810;48.800;9.086;2023-03-19T00:10:42;97327.59;;;8.78;68.65
71938;BME280;59810;48.800;9.086;2023-03-19T00:13:07;97329.16;;;8.73;68.76
71938;BME280;59810;48.800;9.086;2023-03-19T00:15:34;97326.63;;;8.67;70.36
71938;BME280;59810;48.800;9.086;2023-03-19T00:18:02;97326.13;;;8.70;69.88
71938;BME280;59810;48.800;9.086;2023-03-19T00:20:30;97324.00;;;8.72;70.99
71938;BME280;59810;48.800;9.086;2023-03-19T00:22:58;97324.50;;;8.69;68.73
71938;BME280;59810;48.800;9.086;2023-03-19T00:25:23;97319.75;;;8.76;68.65
71938;BME280;59810;48.800;9.086;2023-03-19T00:27:48;97328.66;;;8.77;69.74
71938;BME280;59810;48.800;9.086;2023-03-19T00:30:16;97325.25;;;8.81;70.51
71938;BME280;59810;48.800;9.086;2023-03-19T00:32:41;97318.25;;;8.80;69.79
71938;BME280;59810;48.800;9.086;2023-03-19T00:35:07;97319.38;;;8.84;68.60
71938;BME280;59810;48.800;9.086;2023-03-19T00:37:35;97327.69;;;8.83;69.80
71938;BME280;59810;48.800;9.086;2023-03-19T00:40:02;97322.38;;;8.88;69.57
71938;BME280;59810;48.800;9.086;2023-03-19T00:42:30;97327.59;;;8.94;68.75
71938;BME280;59810;48.800;9.086;2023-03-19T00:44:56;97321.16;;;8.95;69.11
71938;BME280;59810;48.800;9.086;2023-03-19T00:47:22;97334.69;;;9.00;68.90
71938;BME280;59810;48.800;9.086;2023-03-19T00:49:48;97334.19;;;9.03;69.20
71938;BME280;59810;48.800;9.086;2023-03-19T00:52:16;97342.81;;;9.05;69.01
71938;BME280;59810;48.800;9.086;2023-03-19T00:54:41;97334.50;;;9.07;69.83
71938;BME280;59810;48.800;9.086;2023-03-19T00:57:09;97334.84;;;9.11;69.18
71938;BME280;59810;48.800;9.086;2023-03-19T00:59:35;97331.31;;;9.10;70.06
71938;BME280;59810;48.800;9.086;2023-03-19T01:02:03;97340.81;;;9.13;69.76
71938;BME280;59810;48.800;9.086;2023-03-19T01:04:28;97323.63;;;9.19;69.15
71938;BME280;59810;48.800;9.086;2023-03-19T01:06:54;97337.25;;;9.29;69.23
71938;BME280;59810;48.800;9.086;2023-03-19T01:09:19;97331.59;;;9.30;70.71
71938;BME280;59810;48.800;9.086;2023-03-19T01:11:45;97343.25;;;9.36;70.17
71938;BME280;59810;48.800;9.086;2023-03-19T01:14:10;97343.31;;;9.41;66.99
71938;BME280;59810;48.800;9.086;2023-03-19T01:16:36;97346.91;;;9.47;67.22
71938;BME280;59810;48.800;9.086;2023-03-19T01:19:04;97351.00;;;9.49;67.52
71938;BME280;59810;48.800;9.086;2023-03-19T01:21:32;97363.47;;;9.55;67.26
71938;BME280;59810;48.800;9.086;2023-03-19T01:24:01;97364.09;;;9.62;67.39
71938;BME280;59810;48.800;9.086;2023-03-19T01:26:32;97368.16;;;9.65;68.34
71938;BME280;59810;48.800;9.086;2023-03-19T01:28:57;97365.72;;;9.63;67.86
71938;BME280;59810;48.800;9.086;2023-03-19T01:31:25;97360.31;;;9.63;68.50
71938;BME280;59810;48.800;9.086;2023-03-19T01:33:51;97361.91;;;9.59;69.50
71938;BME280;59810;48.800;9.086;2023-03-19T01:36:18;97375.88;;;9.56;69.37
71938;BME280;59810;48.800;9.086;2023-03-19T01:38:44;97380.75;;;9.59;69.94
71938;BME280;59810;48.800;9.086;2023-03-19T01:41:09;97390.50;;;9.82;65.73
71938;BME280;59810;48.800;9.086;2023-03-19T01:43:39;97386.28;;;10.13;61.72
71938;BME280;59810;48.800;9.086;2023-03-19T01:48:40;97394.09;;;10.64;58.87
71938;BME280;59810;48.800;9.086;2023-03-19T01:51:09;97396.66;;;10.75;59.07
71938;BME280;59810;48.800;9.086;2023-03-19T01:53:36;97397.78;;;10.79;59.06
71938;BME280;59810;48.800;9.086;2023-03-19T01:56:11;97392.66;;;10.83;59.63
71938;BME280;59810;48.800;9.086;2023-03-19T01:58:39;97402.91;;;10.81;60.98
71938;BME280;59810;48.800;9.086;2023-03-19T02:01:06;97401.84;;;10.82;62.47
71938;BME280;59810;48.800;9.086;2023-03-19T02:03:32;97403.44;;;10.78;63.92
71938;BME280;59810;48.800;9.086;2023-03-19T02:05:58;97405.03;;;10.74;64.63
71938;BME280;59810;48.800;9.086;2023-03-19T02:08:26;97415.88;;;10.79;66.63
71938;BME280;59810;48.800;9.086;2023-03-19T02:10:52;97410.75;;;10.82;67.99
71938;BME280;59810;48.800;9.086;2023-03-19T02:13:20;97413.47;;;10.82;69.74
71938;BME280;59810;48.800;9.086;2023-03-19T02:15:47;97430.13;;;10.74;72.32
71938;BME280;59810;48.800;9.086;2023-03-19T02:18:13;97430.81;;;10.65;74.82
71938;BME280;59810;48.800;9.086;2023-03-19T02:20:49;97428.25;;;10.48;77.06
71938;BME280;59810;48.800;9.086;2023-03-19T02:23:25;97423.75;;;10.32;79.56
71938;BME280;59810;48.800;9.086;2023-03-19T02:26:13;97414.38;;;10.17;81.13
71938;BME280;59810;48.800;9.086;2023-03-19T02:28:41;97400.69;;;10.02;84.81
71938;BME280;59810;48.800;9.086;2023-03-19T02:31:08;97398.91;;;9.86;87.77
71938;BME280;59810;48.800;9.086;2023-03-19T02:33:34;97391.66;;;9.70;90.77
71938;BME280;59810;48.800;9.086;2023-03-19T02:36:01;97402.06;;;9.61;92.16
71938;BME280;59810;48.800;9.086;2023-03-19T02:38:29;97394.25;;;9.59;92.38
71938;BME280;59810;48.800;9.086;2023-03-19T02:41:05;97384.97;;;9.50;93.52
71938;BME280;59810;48.800;9.086;2023-03-19T02:43:32;97396.16;;;9.42;95.16
71938;BME280;59810;48.800;9.086;2023-03-19T02:46:02;97392.56;;;9.36;96.16
71938;BME280;59810;48.800;9.086;2023-03-19T02:48:28;97392.44;;;9.26;96.91
71938;BME280;59810;48.800;9.086;2023-03-19T02:50:54;97398.16;;;9.13;98.15
71938;BME280;59810;48.800;9.086;2023-03-19T02:53:20;97400.03;;;9.13;98.53
71938;BME280;59810;48.800;9.086;2023-03-19T02:55:48;97388.22;;;9.14;97.98
71938;BME280;59810;48.800;9.086;2023-03-19T02:58:13;97397.81;;;9.10;99.67
71938;BME280;59810;48.800;9.086;2023-03-19T03:00:39;97388.84;;;9.04;99.08
71938;BME280;59810;48.800;9.086;2023-03-19T03:03:05;97400.44;;;9.04;99.26
71938;BME280;59810;48.800;9.086;2023-03-19T03:05:32;97394.16;;;8.99;98.71
71938;BME280;59810;48.800;9.086;2023-03-19T03:07:57;97405.75;;;8.99;99.19
71938;BME280;59810;48.800;9.086;2023-03-19T03:10:23;97411.63;;;8.96;98.65
71938;BME280;59810;48.800;9.086;2023-03-19T03:12:48;97398.34;;;8.90;99.52
71938;BME280;59810;48.800;9.086;2023-03-19T03:15:14;97395.88;;;8.88;100.00
71938;BME280;59810;48.800;9.086;2023-03-19T03:17:43;97400.69;;;8.86;100.00
71938;BME280;59810;48.800;9.086;2023-03-19T03:20:10;97394.75;;;8.84;100.00
71938;BME280;59810;48.800;9.086;2023-03-19T03:22:39;97396.88;;;8.82;100.00
71938;BME280;59810;48.800;9.086;2023-03-19T03:25:08;97388.69;;;8.77;100.00
71938;BME280;59810;48.800;9.086;2023-03-19T03:27:34;97396.19;;;8.75;100.00
71938;BME280;59810;48.800;9.086;2023-03-19T03:30:01;97394.06;;;8.77;100.00
71938;BME280;59810;48.800;9.086;2023-03-19T03:32:26;97398.63;;;8.77;100.00
71938;BME280;59810;48.800;9.086;2023-03-19T03:34:52;97398.19;;;8.80;100.00
71938;BME280;59810;48.800;9.086;2023-03-19T03:37:17;97407.63;;;8.82;100.00
71938;BME280;59810;48.800;9.086;2023-03-19T03:39:43;97399.31;;;8.84;100.00
71938;BME280;59810;48.800;9.086;2023-03-19T03:42:08;97403.41;;;8.86;100.00
71938;BME280;59810;48.800;9.086;2023-03-19T03:44:34;97407.16;;;8.85;100.00
71938;BME280;59810;48.800;9.086;2023-03-19T03:47:00;97406.56;;;8.83;100.00
71938;BME280;59810;48.800;9.086;2023-03-19T03:49:26;97401.50;;;8.87;100.00
71938;BME280;59810;48.800;9.086;2023-03-19T03:51:51;97408.53;;;8.88;100.00
71938;BME280;59810;48.800;9.086;2023-03-19T03:54:16;97406.66;;;8.88;99.56
71938;BME280;59810;48.800;9.086;2023-03-19T03:56:42;97407.63;;;8.82;99.90
71938;BME280;59810;48.800;9.086;2023-03-19T03:59:07;97410.31;;;8.82;100.00
71938;BME280;59810;48.800;9.086;2023-03-19T04:01:34;97407.78;;;8.76;99.30
71938;BME280;59810;48.800;9.086;2023-03-19T04:03:59;97414.47;;;8.73;100.00
71938;BME280;59810;48.800;9.086;2023-03-19T04:06:26;97416.56;;;8.71;100.00
71938;BME280;59810;48.800;9.086;2023-03-19T04:08:52;97415.75;;;8.70;100.00
71938;BME280;59810;48.800;9.086;2023-03-19T04:11:20;97414.88;;;8.65;100.00
71938;BME280;59810;48.800;9.086;2023-03-19T04:13:47;97424.97;;;8.58;100.00
71938;BME280;59810;48.800;9.086;2023-03-19T04:16:15;97425.38;;;8.50;100.00
71938;BME280;59810;48.800;9.086;2023-03-19T04:18:41;97428.72;;;8.57;100.00
71938;BME280;59810;48.800;9.086;2023-03-19T04:21:08;97434.69;;;8.59;100.00
71938;BME280;59810;48.800;9.086;2023-03-19T04:23:34;97431.16;;;8.58;100.00
71938;BME280;59810;48.800;9.086;2023-03-19T04:26:04;97425.69;;;8.53;100.00
71938;BME280;59810;48.800;9.086;2023-03-19T04:28:32;97433.19;;;8.51;100.00
71938;BME280;59810;48.800;9.086;2023-03-19T04:31:05;97428.38;;;8.53;100.00
71938;BME280;59810;48.800;9.086;2023-03-19T04:33:32;97430.84;;;8.55;100.00
71938;BME280;59810;48.800;9.086;2023-03-19T04:35:57;97428.16;;;8.55;100.00
71938;BME280;59810;48.800;9.086;2023-03-19T04:38:26;97430.84;;;8.55;100.00
71938;BME280;59810;48.800;9.086;2023-03-19T04:40:52;97438.91;;;8.55;100.00
71938;BME280;59810;48.800;9.086;2023-03-19T04:43:20;97439.47;;;8.57;100.00
71938;BME280;59810;48.800;9.086;2023-03-19T04:45:46;97442.50;;;8.60;100.00
71938;BME280;59810;48.800;9.086;2023-03-19T04:48:11;97437.44;;;8.64;100.00
71938;BME280;59810;48.800;9.086;2023-03-19T04:50:40;97442.84;;;8.64;100.00
71938;BME280;59810;48.800;9.086;2023-03-19T04:53:06;97444.38;;;8.60;100.00
71938;BME280;59810;48.800;9.086;2023-03-19T04:55:33;97440.63;;;8.61;100.00
71938;BME280;59810;48.800;9.086;2023-03-19T04:57:59;97444.38;;;8.60;100.00
71938;BME280;59810;48.800;9.086;2023-03-19T05:00:25;97439.56;;;8.62;100.00
71938;BME280;59810;48.800;9.086;2023-03-19T05:02:50;97443.31;;;8.61;100.00
71938;BME280;59810;48.800;9.086;2023-03-19T05:05:16;97453.03;;;8.62;100.00
71938;BME280;59810;48.800;9.086;2023-03-19T05:07:44;97449.03;;;8.64;98.22
71938;BME280;59810;48.800;9.086;2023-03-19T05:10:10;97451.56;;;8.71;96.28
71938;BME280;59810;48.800;9.086;2023-03-19T05:12:35;97454.00;;;8.72;96.56
71938;BME280;59810;48.800;9.086;2023-03-19T05:15:03;97460.53;;;8.77;97.05
71938;BME280;59810;48.800;9.086;2023-03-19T05:17:30;97450.03;;;8.75;98.41
71938;BME280;59810;48.800;9.086;2023-03-19T05:19:55;97461.84;;;8.74;97.32
71938;BME280;59810;48.800;9.086;2023-03-19T05:22:21;97462.09;;;8.72;97.68
71938;BME280;59810;48.800;9.086;2023-03-19T05:24:48;97461.28;;;8.72;94.88
71938;BME280;59810;48.800;9.086;2023-03-19T05:27:13;97464.66;;;8.79;88.17
71938;BME280;59810;48.800;9.086;2023-03-19T05:29:39;97448.44;;;8.91;83.08
71938;BME280;59810;48.800;9.086;2023-03-19T05:32:05;97453.97;;;9.01;82.95
71938;BME280;59810;48.800;9.086;2023-03-19T05:34:31;97449.22;;;9.08;84.81
71938;BME280;59810;48.800;9.086;2023-03-19T05:36:59;97454.38;;;9.10;83.90
71938;BME280;59810;48.800;9.086;2023-03-19T05:39:25;97455.38;;;9.20;78.91
71938;BME280;59810;48.800;9.086;2023-03-19T05:41:50;97461.97;;;9.29;77.57
71938;BME280;59810;48.800;9.086;2023-03-19T05:44:16;97463.34;;;9.32;77.57
71938;BME280;59810;48.800;9.086;2023-03-19T05:46:42;97478.28;;;9.40;75.23
71938;BME280;59810;48.800;9.086;2023-03-19T05:49:07;97471.59;;;9.42;76.04
71938;BME280;59810;48.800;9.086;2023-03-19T05:51:33;97473.06;;;9.50;74.76
71938;BME280;59810;48.800;9.086;2023-03-19T05:53:58;97479.34;;;9.55;74.46
71938;BME280;59810;48.800;9.086;2023-03-19T05:56:24;97479.44;;;9.60;73.91
71938;BME280;59810;48.800;9.086;2023-03-19T05:58:49;97477.63;;;9.66;72.67
71938;BME280;59810;48.800;9.086;2023-03-19T06:01:15;97476.06;;;9.70;72.78
71938;BME280;59810;48.800;9.086;2023-03-19T06:03:40;97478.59;;;9.77;72.20
71938;BME280;59810;48.800;9.086;2023-03-19T06:06:06;97480.53;;;9.81;71.82
71938;BME280;59810;48.800;9.086;2023-03-19T06:08:32;97489.84;;;9.90;70.63
71938;BME280;59810;48.800;9.086;2023-03-19T06:10:57;97483.69;;;9.95;70.68
71938;BME280;59810;48.800;9.086;2023-03-19T06:13:22;97496.66;;;9.98;72.52
71938;BME280;59810;48.800;9.086;2023-03-19T06:15:48;97495.91;;;10.03;70.55
71938;BME280;59810;48.800;9.086;2023-03-19T06:18:17;97502.44;;;10.07;69.88
71938;BME280;59810;48.800;9.086;2023-03-19T06:20:42;97500.66;;;10.12;70.06
71938;BME280;59810;48.800;9.086;2023-03-19T06:23:10;97505.78;;;10.14;70.03
71938;BME280;59810;48.800;9.086;2023-03-19T06:25:36;97496.13;;;10.18;68.82
71938;BME280;59810;48.800;9.086;2023-03-19T06:28:01;97497.59;;;10.25;68.03
71938;BME280;59810;48.800;9.086;2023-03-19T06:30:26;97506.81;;;10.29;67.83
71938;BME280;59810;48.800;9.086;2023-03-19T06:32:52;97502.56;;;10.34;66.93
71938;BME280;59810;48.800;9.086;2023-03-19T06:35:17;97500.72;;;10.39;67.40
71938;BME280;59810;48.800;9.086;2023-03-19T06:37:43;97501.63;;;10.45;66.25
71938;BME280;59810;48.800;9.086;2023-03-19T06:40:09;97498.69;;;10.46;66.27
71938;BME280;59810;48.800;9.086;2023-03-19T06:42:34;97502.25;;;10.52;66.27
71938;BME280;59810;48.800;9.086;2023-03-19T06:45:00;97502.81;;;10.54;66.41
71938;BME280;59810;48.800;9.086;2023-03-19T06:47:26;97507.19;;;10.60;66.59
71938;BME280;59810;48.800;9.086;2023-03-19T06:49:51;97507.19;;;10.60;67.30
71938;BME280;59810;48.800;9.086;2023-03-19T06:52:17;97500.47;;;10.63;65.49
71938;BME280;59810;48.800;9.086;2023-03-19T06:54:42;97504.53;;;10.65;66.04
71938;BME280;59810;48.800;9.086;2023-03-19T06:57:07;97498.13;;;10.71;64.24
71938;BME280;59810;48.800;9.086;2023-03-19T06:59:33;97504.94;;;10.74;64.62
71938;BME280;59810;48.800;9.086;2023-03-19T07:01:58;97503.09;;;10.79;63.96
71938;BME280;59810;48.800;9.086;2023-03-19T07:04:23;97506.09;;;10.83;63.43
71938;BME280;59810;48.800;9.086;2023-03-19T07:06:49;97504.25;;;10.88;62.72
71938;BME280;59810;48.800;9.086;2023-03-19T07:09:14;97516.13;;;10.87;63.26
71938;BME280;59810;48.800;9.086;2023-03-19T07:11:40;97504.50;;;10.87;63.84
71938;BME280;59810;48.800;9.086;2023-03-19T07:14:07;97506.16;;;10.88;63.99
71938;BME280;59810;48.800;9.086;2023-03-19T07:16:33;97509.66;;;10.88;64.05
71938;BME280;59810;48.800;9.086;2023-03-19T07:18:58;97512.91;;;10.90;64.42
71938;BME280;59810;48.800;9.086;2023-03-19T07:21:28;97517.25;;;10.91;64.22
71938;BME280;59810;48.800;9.086;2023-03-19T07:23:54;97516.75;;;10.95;64.28
71938;BME280;59810;48.800;9.086;2023-03-19T07:26:21;97514.28;;;10.93;65.05
71938;BME280;59810;48.800;9.086;2023-03-19T07:28:53;97520.34;;;11.05;64.15
71938;BME280;59810;48.800;9.086;2023-03-19T07:31:20;97517.16;;;11.08;64.74
71938;BME280;59810;48.800;9.086;2023-03-19T07:33:46;97516.94;;;11.15;64.06
71938;BME280;59810;48.800;9.086;2023-03-19T07:36:11;97520.22;;;11.17;63.69
71938;BME280;59810;48.800;9.086;2023-03-19T07:38:36;97518.88;;;11.19;63.26
71938;BME280;59810;48.800;9.086;2023-03-19T07:41:02;97537.59;;;11.26;63.39
71938;BME280;59810;48.800;9.086;2023-03-19T07:43:28;97529.50;;;11.31;62.58
71938;BME280;59810;48.800;9.086;2023-03-19T07:45:57;97529.88;;;11.40;62.57
71938;BME280;59810;48.800;9.086;2023-03-19T07:48:22;97530.69;;;11.40;62.29
71938;BME280;59810;48.800;9.086;2023-03-19T07:50:50;97532.91;;;11.48;62.14
71938;BME280;59810;48.800;9.086;2023-03-19T07:53:16;97536.25;;;11.61;61.39
71938;BME280;59810;48.800;9.086;2023-03-19T07:55:41;97534.63;;;11.60;61.65
71938;BME280;59810;48.800;9.086;2023-03-19T07:58:07;97543.59;;;11.65;60.85
71938;BME280;59810;48.800;9.086;2023-03-19T08:00:32;97539.63;;;11.73;60.81
71938;BME280;59810;48.800;9.086;2023-03-19T08:02:58;97536.97;;;11.78;59.97
71938;BME280;59810;48.800;9.086;2023-03-19T08:05:23;97532.66;;;11.82;59.84
71938;BME280;59810;48.800;9.086;2023-03-19T08:07:49;97534.59;;;11.87;59.45
71938;BME280;59810;48.800;9.086;2023-03-19T08:10:16;97531.69;;;11.98;59.62
71938;BME280;59810;48.800;9.086;2023-03-19T08:12:42;97533.91;;;12.06;59.14
71938;BME280;59810;48.800;9.086;2023-03-19T08:15:09;97537.69;;;12.05;59.14
71938;BME280;59810;48.800;9.086;2023-03-19T08:17:35;97533.91;;;12.06;59.08
71938;BME280;59810;48.800;9.086;2023-03-19T08:20:10;97534.50;;;12.19;57.78
71938;BME280;59810;48.800;9.086;2023-03-19T08:22:37;97532.06;;;12.17;58.91
71938;BME280;59810;48.800;9.086;2023-03-19T08:25:06;97534.25;;;12.20;58.34
71938;BME280;59810;48.800;9.086;2023-03-19T08:27:36;97528.31;;;12.23;58.66
71938;BME280;59810;48.800;9.086;2023-03-19T08:30:04;97532.66;;;12.24;58.58
71938;BME280;59810;48.800;9.086;2023-03-19T08:32:31;97534.84;;;12.32;57.95
71938;BME280;59810;48.800;9.086;2023-03-19T08:34:59;97532.44;;;12.36;58.67
71938;BME280;59810;48.800;9.086;2023-03-19T08:37:24;97541.69;;;12.40;57.93
71938;BME280;59810;48.800;9.086;2023-03-19T08:39:50;97536.00;;;12.41;58.42
71938;BME280;59810;48.800;9.086;2023-03-19T08:42:16;97542.25;;;12.47;58.17
71938;BME280;59810;48.800;9.086;2023-03-19T08:44:42;97535.75;;;12.48;57.73
71938;BME280;59810;48.800;9.086;2023-03-19T08:47:07;97538.16;;;12.44;58.14
71938;BME280;59810;48.800;9.086;2023-03-19T08:49:33;97538.72;;;12.46;58.08
71938;BME280;59810;48.800;9.086;2023-03-19T08:51:58;97545.22;;;12.45;58.21
71938;BME280;59810;48.800;9.086;2023-03-19T08:54:23;97544.41;;;12.45;58.21
71938;BME280;59810;48.800;9.086;2023-03-19T08:56:49;97553.63;;;12.49;57.66
71938;BME280;59810;48.800;9.086;2023-03-19T08:59:15;97547.69;;;12.57;57.32
71938;BME280;59810;48.800;9.086;2023-03-19T09:01:40;97553.38;;;12.61;57.80
71938;BME280;59810;48.800;9.086;2023-03-19T09:04:06;97550.75;;;12.71;57.30
71938;BME280;59810;48.800;9.086;2023-03-19T09:06:31;97556.19;;;12.81;56.64
71938;BME280;59810;48.800;9.086;2023-03-19T09:08:56;97561.09;;;12.94;55.59
71938;BME280;59810;48.800;9.086;2023-03-19T09:11:27;97558.44;;;13.09;56.09
71938;BME280;59810;48.800;9.086;2023-03-19T09:13:52;97548.47;;;13.20;55.95
71938;BME280;59810;48.800;9.086;2023-03-19T09:16:17;97553.66;;;13.37;55.31
71938;BME280;59810;48.800;9.086;2023-03-19T09:18:47;97553.38;;;13.49;53.44
71938;BME280;59810;48.800;9.086;2023-03-19T09:21:15;97550.38;;;13.60;53.63
71938;BME280;59810;48.800;9.086;2023-03-19T09:23:40;97550.94;;;13.73;53.39
71938;BME280;59810;48.800;9.086;2023-03-19T09:26:06;97546.59;;;13.87;53.57
71938;BME280;59810;48.800;9.086;2023-03-19T09:28:34;97541.97;;;13.82;53.09
71938;BME280;59810;48.800;9.086;2023-03-19T09:31:00;97547.13;;;13.84;52.45
71938;BME280;59810;48.800;9.086;2023-03-19T09:33:31;97552.81;;;13.87;52.14
71938;BME280;59810;48.800;9.086;2023-03-19T09:35:57;97553.09;;;13.86;51.24
71938;BME280;59810;48.800;9.086;2023-03-19T09:38:23;97548.19;;;13.93;52.44
71938;BME280;59810;48.800;9.086;2023-03-19T09:41:00;97552.25;;;14.11;51.34
71938;BME280;59810;48.800;9.086;2023-03-19T09:46:14;97554.94;;;14.26;50.40
71938;BME280;59810;48.800;9.086;2023-03-19T09:48:57;97542.72;;;14.33;50.24
71938;BME280;59810;48.800;9.086;2023-03-19T09:51:38;97545.44;;;14.44;49.40
71938;BME280;59810;48.800;9.086;2023-03-19T09:54:31;97554.06;;;14.56;48.45
71938;BME280;59810;48.800;9.086;2023-03-19T09:56:57;97552.66;;;14.74;48.49
71938;BME280;59810;48.800;9.086;2023-03-19T09:59:27;97549.38;;;14.77;47.90
71938;BME280;59810;48.800;9.086;2023-03-19T10:07:59;97546.56;;;14.92;47.25
71938;BME280;59810;48.800;9.086;2023-03-19T10:10:50;97535.91;;;15.06;47.08
71938;BME280;59810;48.800;9.086;2023-03-19T10:16:19;97530.66;;;15.19;47.46
71938;BME280;59810;48.800;9.086;2023-03-19T10:18:48;97531.47;;;15.20;47.94
71938;BME280;59810;48.800;9.086;2023-03-19T10:21:19;97535.81;;;15.21;47.14
71938;BME280;59810;48.800;9.086;2023-03-19T10:26:20;97538.00;;;15.58;46.55
71938;BME280;59810;48.800;9.086;2023-03-19T10:34:30;97530.13;;;15.91;46.45
71938;BME280;59810;48.800;9.086;2023-03-19T10:39:35;97522.44;;;15.69;46.35
71938;BME280;59810;48.800;9.086;2023-03-19T10:44:50;97522.16;;;15.70;46.22
71938;BME280;59810;48.800;9.086;2023-03-19T10:47:17;97523.00;;;15.66;45.44
71938;BME280;59810;48.800;9.086;2023-03-19T10:49:44;97523.31;;;15.59;46.01
71938;BME280;59810;48.800;9.086;2023-03-19T10:54:54;97521.47;;;15.49;45.69
71938;BME280;59810;48.800;9.086;2023-03-19T10:57:27;97523.84;;;15.56;46.07
71938;BME280;59810;48.800;9.086;2023-03-19T10:59:53;97526.28;;;15.57;46.63
71938;BME280;59810;48.800;9.086;2023-03-19T11:04:44;97522.63;;;15.77;46.54
71938;BME280;59810;48.800;9.086;2023-03-19T11:07:20;97517.59;;;15.90;45.69
71938;BME280;59810;48.800;9.086;2023-03-19T11:09:49;97512.69;;;15.92;45.82
71938;BME280;59810;48.800;9.086;2023-03-19T11:14:53;97516.59;;;15.80;46.02
71938;BME280;59810;48.800;9.086;2023-03-19T11:19:56;97518.13;;;15.92;46.23
71938;BME280;59810;48.800;9.086;2023-03-19T11:22:27;97515.09;;;15.98;46.21
71938;BME280;59810;48.800;9.086;2023-03-19T11:24:56;97511.91;;;16.15;45.78
71938;BME280;59810;48.800;9.086;2023-03-19T11:27:30;97508.59;;;16.18;45.52
71938;BME280;59810;48.800;9.086;2023-03-19T11:29:58;97506.75;;;16.13;45.74
71938;BME280;59810;48.800;9.086;2023-03-19T11:32:58;97502.56;;;16.21;45.49
71938;BME280;59810;48.800;9.086;2023-03-19T11:35:38;97506.50;;;16.58;45.08
71938;BME280;59810;48.800;9.086;2023-03-19T11:38:14;97501.75;;;16.92;43.83
71938;BME280;59810;48.800;9.086;2023-03-19T11:41:00;97499.38;;;17.23;44.44
71938;BME280;59810;48.800;9.086;2023-03-19T11:43:39;97494.53;;;17.53;42.49
71938;BME280;59810;48.800;9.086;2023-03-19T11:56:47;97489.00;;;17.25;43.43
71938;BME280;59810;48.800;9.086;2023-03-19T12:10:49;97471.66;;;17.35;43.16
71938;BME280;59810;48.800;9.086;2023-03-19T12:21:49;97475.28;;;17.11;43.08
71938;BME280;59810;48.800;9.086;2023-03-19T12:34:35;97473.66;;;17.29;44.25
71938;BME280;59810;48.800;9.086;2023-03-19T12:42:41;97484.09;;;16.18;48.35
71938;BME280;59810;48.800;9.086;2023-03-19T12:45:21;97485.09;;;15.74;50.33
71938;BME280;59810;48.800;9.086;2023-03-19T12:47:49;97491.13;;;15.32;52.04
71938;BME280;59810;48.800;9.086;2023-03-19T12:50:17;97501.97;;;14.98;53.64
71938;BME280;59810;48.800;9.086;2023-03-19T12:52:48;97497.50;;;14.68;55.69
71938;BME280;59810;48.800;9.086;2023-03-19T12:55:38;97506.56;;;14.48;57.49
71938;BME280;59810;48.800;9.086;2023-03-19T12:58:25;97502.84;;;14.14;58.27
71938;BME280;59810;48.800;9.086;2023-03-19T13:01:02;97506.13;;;13.95;59.93
71938;BME280;59810;48.800;9.086;2023-03-19T13:06:07;97508.88;;;13.60;64.86
71938;BME280;59810;48.800;9.086;2023-03-19T13:08:42;97512.16;;;13.57;66.54
71938;BME280;59810;48.800;9.086;2023-03-19T13:11:13;97507.25;;;13.28;71.84
71938;BME280;59810;48.800;9.086;2023-03-19T13:21:39;97495.44;;;12.67;78.21
71938;BME280;59810;48.800;9.086;2023-03-19T13:26:51;97486.88;;;13.11;79.35
71938;BME280;59810;48.800;9.086;2023-03-19T13:29:20;97484.47;;;13.19;80.63
71938;BME280;59810;48.800;9.086;2023-03-19T13:31:49;97477.97;;;13.20;80.60
71938;BME280;59810;48.800;9.086;2023-03-19T13:36:41;97483.94;;;13.32;72.54
71938;BME280;59810;48.800;9.086;2023-03-19T13:39:15;97488.81;;;13.51;73.70
71938;BME280;59810;48.800;9.086;2023-03-19T13:47:06;97487.19;;;13.55;72.25
71938;BME280;59810;48.800;9.086;2023-03-19T13:50:20;97493.19;;;13.42;76.21
71938;BME280;59810;48.800;9.086;2023-03-19T13:53:11;97496.97;;;13.41;73.83
71938;BME280;59810;48.800;9.086;2023-03-19T13:55:57;97494.53;;;13.34;72.04
71938;BME280;59810;48.800;9.086;2023-03-19T13:58:25;97500.19;;;13.32;74.21
71938;BME280;59810;48.800;9.086;2023-03-19T14:03:54;97493.97;;;13.57;75.40
71938;BME280;59810;48.800;9.086;2023-03-19T14:06:32;97492.88;;;13.74;74.49
71938;BME280;59810;48.800;9.086;2023-03-19T14:08:59;97491.47;;;13.91;75.11
71938;BME280;59810;48.800;9.086;2023-03-19T14:11:30;97487.34;;;14.19;77.13
71938;BME280;59810;48.800;9.086;2023-03-19T14:14:01;97490.25;;;14.48;76.63
71938;BME280;59810;48.800;9.086;2023-03-19T14:16:33;97483.13;;;14.68;72.99
71938;BME280;59810;48.800;9.086;2023-03-19T14:19:02;97476.41;;;14.99;68.81
71938;BME280;59810;48.800;9.086;2023-03-19T14:24:36;97474.88;;;15.56;64.42
71938;BME280;59810;48.800;9.086;2023-03-19T14:27:14;97478.97;;;15.59;61.57
71938;BME280;59810;48.800;9.086;2023-03-19T14:29:42;97484.41;;;15.53;59.76
71938;BME280;59810;48.800;9.086;2023-03-19T14:32:14;97470.00;;;15.53;56.19
71938;BME280;59810;48.800;9.086;2023-03-19T14:34:42;97487.50;;;15.42;56.06
71938;BME280;59810;48.800;9.086;2023-03-19T14:37:20;97482.31;;;15.11;56.29
71938;BME280;59810;48.800;9.086;2023-03-19T14:39:58;97487.13;;;14.80;57.74
71938;BME280;59810;48.800;9.086;2023-03-19T14:53:47;97495.28;;;13.90;60.84
71938;BME280;59810;48.800;9.086;2023-03-19T14:56:25;97495.59;;;13.79;62.93
71938;BME280;59810;48.800;9.086;2023-03-19T14:58:55;97493.72;;;13.69;64.26
71938;BME280;59810;48.800;9.086;2023-03-19T15:01:25;97489.38;;;13.68;64.43
71938;BME280;59810;48.800;9.086;2023-03-19T15:04:00;97488.28;;;13.54;63.39
71938;BME280;59810;48.800;9.086;2023-03-19T15:06:33;97492.34;;;13.41;62.67
71938;BME280;59810;48.800;9.086;2023-03-19T15:09:00;97496.97;;;13.41;63.28
71938;BME280;59810;48.800;9.086;2023-03-19T15:14:38;97495.06;;;13.56;63.97